sensor_id;sensor_type;location;lat;lon;timestamp;P1;durP1;ratioP1;P2;durP2;ratioP2
39994;SDS011;25686;51.908;10.418;2024-01-16T00:00:04;9.03;;;2.57;;
39994;SDS011;25686;51.908;10.418;2024-01-16T00:02:06;7.60;;;2.10;;
39994;SDS011;25686;51.908;10.418;2024-01-16T00:04:09;6.80;;;1.60;;
39994;SDS011;25686;51.908;10.418;2024-01-16T00:06:10;6.73;;;1.90;;
39994;SDS011;25686;51.908;10.418;2024-01-16T00:08:12;5.83;;;1.93;;
39994;SDS011;25686;51.908;10.418;2024-01-16T00:10:13;6.03;;;1.90;;
39994;SDS011;25686;51.908;10.418;2024-01-16T00:12:14;5.07;;;1.83;;
39994;SDS011;25686;51.908;10.418;2024-01-16T00:14:15;3.33;;;1.60;;
39994;SDS011;25686;51.908;10.418;2024-01-16T00:16:16;6.87;;;1.87;;
39994;SDS011;25686;51.908;10.418;2024-01-16T00:18:17;3.43;;;1.60;;
39994;SDS011;25686;51.908;10.418;2024-01-16T00:20:18;5.70;;;1.60;;
39994;SDS011;25686;51.908;10.418;2024-01-16T00:22:19;5.97;;;1.40;;
39994;SDS011;25686;51.908;10.418;2024-01-16T00:24:20;4.70;;;1.70;;
39994;SDS011;25686;51.908;10.418;2024-01-16T00:26:22;6.50;;;1.60;;
39994;SDS011;25686;51.908;10.418;2024-01-16T00:28:23;3.83;;;1.30;;
39994;SDS011;25686;51.908;10.418;2024-01-16T00:30:24;3.57;;;1.27;;
39994;SDS011;25686;51.908;10.418;2024-01-16T00:32:25;5.63;;;1.50;;
39994;SDS011;25686;51.908;10.418;2024-01-16T00:34:26;4.83;;;1.60;;
39994;SDS011;25686;51.908;10.418;2024-01-16T00:36:27;7.53;;;1.30;;
39994;SDS011;25686;51.908;10.418;2024-01-16T00:38:28;5.97;;;1.60;;
39994;SDS011;25686;51.908;10.418;2024-01-16T00:40:29;3.10;;;1.43;;
39994;SDS011;25686;51.908;10.418;2024-01-16T00:42:30;4.87;;;1.37;;
39994;SDS011;25686;51.908;10.418;2024-01-16T00:44:34;3.00;;;1.20;;
39994;SDS011;25686;51.908;10.418;2024-01-16T00:46:35;5.80;;;1.30;;
39994;SDS011;25686;51.908;10.418;2024-01-16T00:48:36;4.43;;;1.50;;
39994;SDS011;25686;51.908;10.418;2024-01-16T00:50:37;2.77;;;1.47;;
39994;SDS011;25686;51.908;10.418;2024-01-16T00:52:38;4.37;;;1.43;;
39994;SDS011;25686;51.908;10.418;2024-01-16T00:54:39;4.90;;;1.60;;
39994;SDS011;25686;51.908;10.418;2024-01-16T00:56:41;3.63;;;1.20;;
39994;SDS011;25686;51.908;10.418;2024-01-16T00:58:43;3.47;;;1.50;;
39994;SDS011;25686;51.908;10.418;2024-01-16T01:00:43;3.93;;;1.47;;
39994;SDS011;25686;51.908;10.418;2024-01-16T01:02:44;3.67;;;1.27;;
39994;SDS011;25686;51.908;10.418;2024-01-16T01:04:45;5.83;;;1.73;;
39994;SDS011;25686;51.908;10.418;2024-01-16T01:06:47;2.70;;;1.20;;
39994;SDS011;25686;51.908;10.418;2024-01-16T01:08:48;5.37;;;1.70;;
39994;SDS011;25686;51.908;10.418;2024-01-16T01:10:49;10.67;;;2.10;;
39994;SDS011;25686;51.908;10.418;2024-01-16T01:12:50;4.10;;;1.40;;
39994;SDS011;25686;51.908;10.418;2024-01-16T01:14:53;2.70;;;1.30;;
39994;SDS011;25686;51.908;10.418;2024-01-16T01:16:54;4.03;;;1.23;;
39994;SDS011;25686;51.908;10.418;2024-01-16T01:18:55;6.07;;;1.60;;
39994;SDS011;25686;51.908;10.418;2024-01-16T01:20:56;7.37;;;1.40;;
39994;SDS011;25686;51.908;10.418;2024-01-16T01:22:57;2.77;;;1.10;;
39994;SDS011;25686;51.908;10.418;2024-01-16T01:24:59;2.30;;;1.00;;
39994;SDS011;25686;51.908;10.418;2024-01-16T01:27:00;6.87;;;1.30;;
39994;SDS011;25686;51.908;10.418;2024-01-16T01:29:01;3.77;;;1.20;;
39994;SDS011;25686;51.908;10.418;2024-01-16T01:31:02;3.90;;;0.90;;
39994;SDS011;25686;51.908;10.418;2024-01-16T01:33:03;5.13;;;1.40;;
39994;SDS011;25686;51.908;10.418;2024-01-16T01:35:05;3.27;;;1.03;;
39994;SDS011;25686;51.908;10.418;2024-01-16T01:37:06;3.73;;;1.17;;
39994;SDS011;25686;51.908;10.418;2024-01-16T01:39:07;4.33;;;1.33;;
39994;SDS011;25686;51.908;10.418;2024-01-16T01:41:08;3.70;;;1.30;;
39994;SDS011;25686;51.908;10.418;2024-01-16T01:43:18;4.43;;;1.23;;
39994;SDS011;25686;51.908;10.418;2024-01-16T01:45:19;4.23;;;1.20;;
39994;SDS011;25686;51.908;10.418;2024-01-16T01:47:21;4.30;;;1.30;;
39994;SDS011;25686;51.908;10.418;2024-01-16T01:49:22;3.87;;;1.37;;
39994;SDS011;25686;51.908;10.418;2024-01-16T01:51:23;5.17;;;1.33;;
39994;SDS011;25686;51.908;10.418;2024-01-16T01:53:24;6.77;;;1.20;;
39994;SDS011;25686;51.908;10.418;2024-01-16T01:55:25;5.70;;;1.30;;
39994;SDS011;25686;51.908;10.418;2024-01-16T01:57:28;6.30;;;1.30;;
39994;SDS011;25686;51.908;10.418;2024-01-16T01:59:29;3.53;;;1.00;;
39994;SDS011;25686;51.908;10.418;2024-01-16T02:01:31;4.43;;;1.40;;
39994;SDS011;25686;51.908;10.418;2024-01-16T02:03:35;3.47;;;1.20;;
39994;SDS011;25686;51.908;10.418;2024-01-16T02:05:37;3.90;;;1.20;;
39994;SDS011;25686;51.908;10.418;2024-01-16T02:07:39;6.63;;;1.33;;
39994;SDS011;25686;51.908;10.418;2024-01-16T02:09:40;4.40;;;1.20;;
39994;SDS011;25686;51.908;10.418;2024-01-16T02:11:41;6.53;;;1.40;;
39994;SDS011;25686;51.908;10.418;2024-01-16T02:13:42;7.80;;;1.40;;
39994;SDS011;25686;51.908;10.418;2024-01-16T02:15:43;4.53;;;1.07;;
39994;SDS011;25686;51.908;10.418;2024-01-16T02:17:44;6.83;;;1.20;;
39994;SDS011;25686;51.908;10.418;2024-01-16T02:19:45;5.03;;;1.10;;
39994;SDS011;25686;51.908;10.418;2024-01-16T02:21:46;5.37;;;1.47;;
39994;SDS011;25686;51.908;10.418;2024-01-16T02:23:51;5.57;;;1.40;;
39994;SDS011;25686;51.908;10.418;2024-01-16T02:25:52;6.40;;;1.50;;
39994;SDS011;25686;51.908;10.418;2024-01-16T02:27:53;10.97;;;1.80;;
39994;SDS011;25686;51.908;10.418;2024-01-16T02:29:54;4.27;;;1.47;;
39994;SDS011;25686;51.908;10.418;2024-01-16T02:31:55;7.60;;;1.90;;
39994;SDS011;25686;51.908;10.418;2024-01-16T02:33:56;12.40;;;1.77;;
39994;SDS011;25686;51.908;10.418;2024-01-16T02:35:58;6.27;;;1.30;;
39994;SDS011;25686;51.908;10.418;2024-01-16T02:37:59;4.00;;;1.40;;
39994;SDS011;25686;51.908;10.418;2024-01-16T02:40:00;7.37;;;1.57;;
39994;SDS011;25686;51.908;10.418;2024-01-16T02:42:06;5.83;;;1.60;;
39994;SDS011;25686;51.908;10.418;2024-01-16T02:44:06;10.83;;;1.60;;
39994;SDS011;25686;51.908;10.418;2024-01-16T02:46:07;9.97;;;1.57;;
39994;SDS011;25686;51.908;10.418;2024-01-16T02:48:09;7.50;;;1.73;;
39994;SDS011;25686;51.908;10.418;2024-01-16T02:50:10;7.90;;;1.60;;
39994;SDS011;25686;51.908;10.418;2024-01-16T02:52:10;9.03;;;1.50;;
39994;SDS011;25686;51.908;10.418;2024-01-16T02:54:11;12.07;;;1.90;;
39994;SDS011;25686;51.908;10.418;2024-01-16T02:56:12;6.43;;;1.77;;
39994;SDS011;25686;51.908;10.418;2024-01-16T02:58:13;8.10;;;1.70;;
39994;SDS011;25686;51.908;10.418;2024-01-16T03:00:14;10.23;;;1.60;;
39994;SDS011;25686;51.908;10.418;2024-01-16T03:02:15;8.33;;;1.67;;
39994;SDS011;25686;51.908;10.418;2024-01-16T03:04:17;5.97;;;1.20;;
39994;SDS011;25686;51.908;10.418;2024-01-16T03:06:21;5.63;;;1.60;;
39994;SDS011;25686;51.908;10.418;2024-01-16T03:08:23;7.00;;;1.60;;
39994;SDS011;25686;51.908;10.418;2024-01-16T03:10:24;10.53;;;1.63;;
39994;SDS011;25686;51.908;10.418;2024-01-16T03:12:25;7.47;;;1.60;;
39994;SDS011;25686;51.908;10.418;2024-01-16T03:14:26;6.63;;;1.60;;
39994;SDS011;25686;51.908;10.418;2024-01-16T03:16:27;5.43;;;1.70;;
39994;SDS011;25686;51.908;10.418;2024-01-16T03:18:28;2.43;;;1.17;;
39994;SDS011;25686;51.908;10.418;2024-01-16T03:20:29;7.97;;;1.40;;
39994;SDS011;25686;51.908;10.418;2024-01-16T03:22:30;6.67;;;1.10;;
39994;SDS011;25686;51.908;10.418;2024-01-16T03:24:31;9.33;;;1.40;;
39994;SDS011;25686;51.908;10.418;2024-01-16T03:26:32;4.00;;;1.27;;
39994;SDS011;25686;51.908;10.418;2024-01-16T03:28:33;5.23;;;1.13;;
39994;SDS011;25686;51.908;10.418;2024-01-16T03:30:34;13.37;;;1.30;;
39994;SDS011;25686;51.908;10.418;2024-01-16T03:32:35;9.60;;;1.30;;
39994;SDS011;25686;51.908;10.418;2024-01-16T03:34:36;10.23;;;1.30;;
39994;SDS011;25686;51.908;10.418;2024-01-16T03:36:37;6.10;;;1.30;;
39994;SDS011;25686;51.908;10.418;2024-01-16T03:38:39;6.27;;;1.20;;
39994;SDS011;25686;51.908;10.418;2024-01-16T03:40:40;9.70;;;1.30;;
39994;SDS011;25686;51.908;10.418;2024-01-16T03:42:41;10.83;;;1.40;;
39994;SDS011;25686;51.908;10.418;2024-01-16T03:44:42;4.83;;;0.93;;
39994;SDS011;25686;51.908;10.418;2024-01-16T03:46:43;4.07;;;1.20;;
39994;SDS011;25686;51.908;10.418;2024-01-16T03:48:44;5.17;;;1.13;;
39994;SDS011;25686;51.908;10.418;2024-01-16T03:50:46;9.50;;;1.20;;
39994;SDS011;25686;51.908;10.418;2024-01-16T03:52:47;6.57;;;1.40;;
39994;SDS011;25686;51.908;10.418;2024-01-16T03:54:48;6.13;;;1.10;;
39994;SDS011;25686;51.908;10.418;2024-01-16T03:56:49;5.30;;;1.13;;
39994;SDS011;25686;51.908;10.418;2024-01-16T03:58:50;9.03;;;1.03;;
39994;SDS011;25686;51.908;10.418;2024-01-16T04:00:51;7.20;;;1.20;;
39994;SDS011;25686;51.908;10.418;2024-01-16T04:02:53;6.50;;;1.10;;
39994;SDS011;25686;51.908;10.418;2024-01-16T04:04:54;5.67;;;1.20;;
39994;SDS011;25686;51.908;10.418;2024-01-16T04:06:55;7.87;;;1.50;;
39994;SDS011;25686;51.908;10.418;2024-01-16T04:08:56;7.13;;;1.30;;
39994;SDS011;25686;51.908;10.418;2024-01-16T04:10:57;13.03;;;1.60;;
39994;SDS011;25686;51.908;10.418;2024-01-16T04:13:00;8.63;;;1.20;;
39994;SDS011;25686;51.908;10.418;2024-01-16T04:15:01;6.60;;;1.50;;
39994;SDS011;25686;51.908;10.418;2024-01-16T04:17:02;8.13;;;1.57;;
39994;SDS011;25686;51.908;10.418;2024-01-16T04:19:03;5.17;;;1.20;;
39994;SDS011;25686;51.908;10.418;2024-01-16T04:21:04;7.83;;;1.63;;
39994;SDS011;25686;51.908;10.418;2024-01-16T04:23:05;5.47;;;1.77;;
39994;SDS011;25686;51.908;10.418;2024-01-16T04:25:06;6.20;;;1.33;;
39994;SDS011;25686;51.908;10.418;2024-01-16T04:27:08;10.43;;;1.57;;
39994;SDS011;25686;51.908;10.418;2024-01-16T04:29:10;7.57;;;1.40;;
39994;SDS011;25686;51.908;10.418;2024-01-16T04:31:12;6.07;;;1.13;;
39994;SDS011;25686;51.908;10.418;2024-01-16T04:33:13;5.63;;;1.40;;
39994;SDS011;25686;51.908;10.418;2024-01-16T04:35:14;8.30;;;1.67;;
39994;SDS011;25686;51.908;10.418;2024-01-16T04:37:15;6.27;;;1.30;;
39994;SDS011;25686;51.908;10.418;2024-01-16T04:39:16;8.77;;;1.27;;
39994;SDS011;25686;51.908;10.418;2024-01-16T04:41:18;6.17;;;1.40;;
39994;SDS011;25686;51.908;10.418;2024-01-16T04:43:19;7.67;;;1.40;;
39994;SDS011;25686;51.908;10.418;2024-01-16T04:45:20;11.97;;;2.03;;
39994;SDS011;25686;51.908;10.418;2024-01-16T04:47:21;7.33;;;1.80;;
39994;SDS011;25686;51.908;10.418;2024-01-16T04:49:22;7.20;;;1.63;;
39994;SDS011;25686;51.908;10.418;2024-01-16T04:51:24;9.37;;;1.73;;
39994;SDS011;25686;51.908;10.418;2024-01-16T04:53:24;9.47;;;1.83;;
39994;SDS011;25686;51.908;10.418;2024-01-16T04:55:28;9.63;;;2.20;;
39994;SDS011;25686;51.908;10.418;2024-01-16T04:57:29;8.53;;;1.93;;
39994;SDS011;25686;51.908;10.418;2024-01-16T04:59:30;9.03;;;1.87;;
39994;SDS011;25686;51.908;10.418;2024-01-16T05:01:32;12.87;;;1.87;;
39994;SDS011;25686;51.908;10.418;2024-01-16T05:03:33;8.60;;;2.30;;
39994;SDS011;25686;51.908;10.418;2024-01-16T05:05:34;8.40;;;2.27;;
39994;SDS011;25686;51.908;10.418;2024-01-16T05:07:35;7.40;;;1.80;;
39994;SDS011;25686;51.908;10.418;2024-01-16T05:09:36;8.40;;;1.80;;
39994;SDS011;25686;51.908;10.418;2024-01-16T05:11:37;8.77;;;2.10;;
39994;SDS011;25686;51.908;10.418;2024-01-16T05:13:38;9.63;;;2.10;;
39994;SDS011;25686;51.908;10.418;2024-01-16T05:15:40;6.10;;;1.77;;
39994;SDS011;25686;51.908;10.418;2024-01-16T05:17:42;8.67;;;1.90;;
39994;SDS011;25686;51.908;10.418;2024-01-16T05:19:43;8.10;;;2.17;;
39994;SDS011;25686;51.908;10.418;2024-01-16T05:21:43;15.33;;;2.10;;
39994;SDS011;25686;51.908;10.418;2024-01-16T05:23:45;13.20;;;1.93;;
39994;SDS011;25686;51.908;10.418;2024-01-16T05:25:46;11.57;;;2.30;;
39994;SDS011;25686;51.908;10.418;2024-01-16T05:27:47;8.63;;;2.37;;
39994;SDS011;25686;51.908;10.418;2024-01-16T05:29:49;9.03;;;2.13;;
39994;SDS011;25686;51.908;10.418;2024-01-16T05:31:50;10.90;;;2.30;;
39994;SDS011;25686;51.908;10.418;2024-01-16T05:33:51;9.07;;;2.10;;
39994;SDS011;25686;51.908;10.418;2024-01-16T05:35:53;10.53;;;2.20;;
39994;SDS011;25686;51.908;10.418;2024-01-16T05:37:54;14.70;;;2.47;;
39994;SDS011;25686;51.908;10.418;2024-01-16T05:39:59;6.57;;;2.30;;
39994;SDS011;25686;51.908;10.418;2024-01-16T05:42:00;8.00;;;2.00;;
39994;SDS011;25686;51.908;10.418;2024-01-16T05:44:01;11.13;;;2.33;;
39994;SDS011;25686;51.908;10.418;2024-01-16T05:46:07;10.30;;;2.20;;
39994;SDS011;25686;51.908;10.418;2024-01-16T05:48:08;11.67;;;2.20;;
39994;SDS011;25686;51.908;10.418;2024-01-16T05:50:09;8.47;;;2.40;;
39994;SDS011;25686;51.908;10.418;2024-01-16T05:52:10;11.57;;;2.93;;
39994;SDS011;25686;51.908;10.418;2024-01-16T05:54:11;8.97;;;2.37;;
39994;SDS011;25686;51.908;10.418;2024-01-16T05:56:12;13.10;;;2.43;;
39994;SDS011;25686;51.908;10.418;2024-01-16T05:58:14;8.90;;;2.40;;
39994;SDS011;25686;51.908;10.418;2024-01-16T06:00:15;10.70;;;2.50;;
39994;SDS011;25686;51.908;10.418;2024-01-16T06:02:17;9.63;;;2.60;;
39994;SDS011;25686;51.908;10.418;2024-01-16T06:04:18;11.87;;;3.30;;
39994;SDS011;25686;51.908;10.418;2024-01-16T06:06:19;8.53;;;2.90;;
39994;SDS011;25686;51.908;10.418;2024-01-16T06:08:20;10.53;;;3.30;;
39994;SDS011;25686;51.908;10.418;2024-01-16T06:10:21;12.80;;;2.87;;
39994;SDS011;25686;51.908;10.418;2024-01-16T06:12:22;15.57;;;2.70;;
39994;SDS011;25686;51.908;10.418;2024-01-16T06:14:23;12.33;;;2.90;;
39994;SDS011;25686;51.908;10.418;2024-01-16T06:16:24;14.83;;;3.07;;
39994;SDS011;25686;51.908;10.418;2024-01-16T06:18:25;7.93;;;3.20;;
39994;SDS011;25686;51.908;10.418;2024-01-16T06:20:26;12.93;;;3.30;;
39994;SDS011;25686;51.908;10.418;2024-01-16T06:22:29;6.83;;;2.90;;
39994;SDS011;25686;51.908;10.418;2024-01-16T06:24:30;14.20;;;3.20;;
39994;SDS011;25686;51.908;10.418;2024-01-16T06:26:36;8.73;;;2.60;;
39994;SDS011;25686;51.908;10.418;2024-01-16T06:28:37;10.60;;;3.43;;
39994;SDS011;25686;51.908;10.418;2024-01-16T06:30:40;9.17;;;2.97;;
39994;SDS011;25686;51.908;10.418;2024-01-16T06:32:41;12.17;;;3.13;;
39994;SDS011;25686;51.908;10.418;2024-01-16T06:34:42;9.87;;;3.37;;
39994;SDS011;25686;51.908;10.418;2024-01-16T06:36:43;9.87;;;3.00;;
39994;SDS011;25686;51.908;10.418;2024-01-16T06:38:44;12.43;;;3.40;;
39994;SDS011;25686;51.908;10.418;2024-01-16T06:40:45;8.07;;;3.03;;
39994;SDS011;25686;51.908;10.418;2024-01-16T06:42:46;9.43;;;3.10;;
39994;SDS011;25686;51.908;10.418;2024-01-16T06:44:47;13.63;;;3.47;;
39994;SDS011;25686;51.908;10.418;2024-01-16T06:46:48;11.07;;;3.43;;
39994;SDS011;25686;51.908;10.418;2024-01-16T06:48:49;13.97;;;3.50;;
39994;SDS011;25686;51.908;10.418;2024-01-16T06:50:50;10.20;;;3.40;;
39994;SDS011;25686;51.908;10.418;2024-01-16T06:52:51;10.33;;;3.90;;
39994;SDS011;25686;51.908;10.418;2024-01-16T06:54:52;11.83;;;3.90;;
39994;SDS011;25686;51.908;10.418;2024-01-16T06:56:53;11.93;;;3.80;;
39994;SDS011;25686;51.908;10.418;2024-01-16T06:58:54;11.83;;;3.53;;
39994;SDS011;25686;51.908;10.418;2024-01-16T07:00:55;10.73;;;4.10;;
39994;SDS011;25686;51.908;10.418;2024-01-16T07:02:56;12.07;;;4.27;;
39994;SDS011;25686;51.908;10.418;2024-01-16T07:04:58;13.33;;;3.80;;
39994;SDS011;25686;51.908;10.418;2024-01-16T07:06:59;10.77;;;4.13;;
39994;SDS011;25686;51.908;10.418;2024-01-16T07:09:00;11.33;;;3.20;;
39994;SDS011;25686;51.908;10.418;2024-01-16T07:11:01;8.77;;;3.83;;
39994;SDS011;25686;51.908;10.418;2024-01-16T07:13:02;10.33;;;3.50;;
39994;SDS011;25686;51.908;10.418;2024-01-16T07:15:03;10.07;;;3.80;;
39994;SDS011;25686;51.908;10.418;2024-01-16T07:17:04;16.27;;;3.83;;
39994;SDS011;25686;51.908;10.418;2024-01-16T07:19:07;13.93;;;4.00;;
39994;SDS011;25686;51.908;10.418;2024-01-16T07:21:17;13.07;;;4.20;;
39994;SDS011;25686;51.908;10.418;2024-01-16T07:23:18;11.93;;;4.20;;
39994;SDS011;25686;51.908;10.418;2024-01-16T07:25:19;10.90;;;4.00;;
39994;SDS011;25686;51.908;10.418;2024-01-16T07:27:20;15.23;;;4.50;;
39994;SDS011;25686;51.908;10.418;2024-01-16T07:29:21;12.00;;;4.60;;
39994;SDS011;25686;51.908;10.418;2024-01-16T07:31:23;12.67;;;4.30;;
39994;SDS011;25686;51.908;10.418;2024-01-16T07:33:24;11.40;;;4.07;;
39994;SDS011;25686;51.908;10.418;2024-01-16T07:35:25;16.63;;;4.80;;
39994;SDS011;25686;51.908;10.418;2024-01-16T07:37:26;12.93;;;4.67;;
39994;SDS011;25686;51.908;10.418;2024-01-16T07:39:27;10.23;;;4.33;;
39994;SDS011;25686;51.908;10.418;2024-01-16T07:41:28;9.93;;;4.23;;
39994;SDS011;25686;51.908;10.418;2024-01-16T07:43:29;11.83;;;4.57;;
39994;SDS011;25686;51.908;10.418;2024-01-16T07:45:30;12.43;;;5.10;;
39994;SDS011;25686;51.908;10.418;2024-01-16T07:47:31;12.47;;;5.40;;
39994;SDS011;25686;51.908;10.418;2024-01-16T07:49:33;14.63;;;4.77;;
39994;SDS011;25686;51.908;10.418;2024-01-16T07:51:33;12.67;;;4.93;;
39994;SDS011;25686;51.908;10.418;2024-01-16T07:53:34;11.27;;;4.47;;
39994;SDS011;25686;51.908;10.418;2024-01-16T07:55:35;13.53;;;4.43;;
39994;SDS011;25686;51.908;10.418;2024-01-16T07:57:36;13.97;;;4.43;;
39994;SDS011;25686;51.908;10.418;2024-01-16T07:59:37;11.57;;;4.67;;
39994;SDS011;25686;51.908;10.418;2024-01-16T08:01:38;15.03;;;5.03;;
39994;SDS011;25686;51.908;10.418;2024-01-16T08:03:39;15.43;;;4.60;;
39994;SDS011;25686;51.908;10.418;2024-01-16T08:05:40;12.00;;;4.23;;
39994;SDS011;25686;51.908;10.418;2024-01-16T08:07:44;12.40;;;4.00;;
39994;SDS011;25686;51.908;10.418;2024-01-16T08:09:45;9.17;;;3.87;;
39994;SDS011;25686;51.908;10.418;2024-01-16T08:11:46;18.47;;;5.00;;
39994;SDS011;25686;51.908;10.418;2024-01-16T08:13:47;17.77;;;4.50;;
39994;SDS011;25686;51.908;10.418;2024-01-16T08:15:48;11.73;;;4.47;;
39994;SDS011;25686;51.908;10.418;2024-01-16T08:17:49;10.43;;;4.10;;
39994;SDS011;25686;51.908;10.418;2024-01-16T08:19:50;16.57;;;4.30;;
39994;SDS011;25686;51.908;10.418;2024-01-16T08:21:51;12.60;;;4.50;;
39994;SDS011;25686;51.908;10.418;2024-01-16T08:23:52;14.47;;;4.03;;
39994;SDS011;25686;51.908;10.418;2024-01-16T08:25:53;11.23;;;3.63;;
39994;SDS011;25686;51.908;10.418;2024-01-16T08:27:54;9.93;;;3.70;;
39994;SDS011;25686;51.908;10.418;2024-01-16T08:29:55;6.77;;;3.87;;
39994;SDS011;25686;51.908;10.418;2024-01-16T08:31:56;10.23;;;3.97;;
39994;SDS011;25686;51.908;10.418;2024-01-16T08:33:57;10.77;;;3.90;;
39994;SDS011;25686;51.908;10.418;2024-01-16T08:35:58;11.87;;;4.17;;
39994;SDS011;25686;51.908;10.418;2024-01-16T08:37:59;13.63;;;4.00;;
39994;SDS011;25686;51.908;10.418;2024-01-16T08:40:01;11.43;;;4.40;;
39994;SDS011;25686;51.908;10.418;2024-01-16T08:42:04;13.70;;;4.77;;
39994;SDS011;25686;51.908;10.418;2024-01-16T08:44:05;7.20;;;4.43;;
39994;SDS011;25686;51.908;10.418;2024-01-16T08:46:06;11.83;;;4.10;;
39994;SDS011;25686;51.908;10.418;2024-01-16T08:48:07;9.97;;;4.50;;
39994;SDS011;25686;51.908;10.418;2024-01-16T08:50:08;13.27;;;4.50;;
39994;SDS011;25686;51.908;10.418;2024-01-16T08:52:09;13.93;;;4.37;;
39994;SDS011;25686;51.908;10.418;2024-01-16T08:54:10;12.47;;;4.50;;
39994;SDS011;25686;51.908;10.418;2024-01-16T08:56:11;12.37;;;4.20;;
39994;SDS011;25686;51.908;10.418;2024-01-16T08:58:12;11.90;;;4.50;;
39994;SDS011;25686;51.908;10.418;2024-01-16T09:00:13;12.40;;;4.17;;
39994;SDS011;25686;51.908;10.418;2024-01-16T09:02:15;9.60;;;4.37;;
39994;SDS011;25686;51.908;10.418;2024-01-16T09:04:16;11.17;;;4.53;;
39994;SDS011;25686;51.908;10.418;2024-01-16T09:06:17;14.00;;;4.87;;
39994;SDS011;25686;51.908;10.418;2024-01-16T09:08:18;13.03;;;5.10;;
39994;SDS011;25686;51.908;10.418;2024-01-16T09:10:19;11.90;;;4.60;;
39994;SDS011;25686;51.908;10.418;2024-01-16T09:12:20;14.57;;;5.13;;
39994;SDS011;25686;51.908;10.418;2024-01-16T09:14:21;9.93;;;5.20;;
39994;SDS011;25686;51.908;10.418;2024-01-16T09:16:22;12.23;;;5.43;;
39994;SDS011;25686;51.908;10.418;2024-01-16T09:18:23;10.03;;;5.47;;
39994;SDS011;25686;51.908;10.418;2024-01-16T09:20:23;15.47;;;6.17;;
39994;SDS011;25686;51.908;10.418;2024-01-16T09:22:24;9.23;;;5.10;;
39994;SDS011;25686;51.908;10.418;2024-01-16T09:24:25;15.33;;;6.57;;
39994;SDS011;25686;51.908;10.418;2024-01-16T09:26:26;13.00;;;5.90;;
39994;SDS011;25686;51.908;10.418;2024-01-16T09:28:27;15.20;;;5.60;;
39994;SDS011;25686;51.908;10.418;2024-01-16T09:30:28;17.83;;;5.77;;
39994;SDS011;25686;51.908;10.418;2024-01-16T09:32:29;13.60;;;6.20;;
39994;SDS011;25686;51.908;10.418;2024-01-16T09:34:30;13.27;;;5.97;;
39994;SDS011;25686;51.908;10.418;2024-01-16T09:36:31;15.83;;;5.57;;
39994;SDS011;25686;51.908;10.418;2024-01-16T09:38:35;13.50;;;6.00;;
39994;SDS011;25686;51.908;10.418;2024-01-16T09:40:36;10.80;;;5.93;;
39994;SDS011;25686;51.908;10.418;2024-01-16T09:42:37;11.40;;;6.07;;
39994;SDS011;25686;51.908;10.418;2024-01-16T09:44:38;13.60;;;5.87;;
39994;SDS011;25686;51.908;10.418;2024-01-16T09:46:39;15.37;;;6.43;;
39994;SDS011;25686;51.908;10.418;2024-01-16T09:48:40;17.60;;;6.97;;
39994;SDS011;25686;51.908;10.418;2024-01-16T09:50:42;12.40;;;6.80;;
39994;SDS011;25686;51.908;10.418;2024-01-16T09:52:45;17.53;;;5.77;;
39994;SDS011;25686;51.908;10.418;2024-01-16T09:54:47;12.90;;;5.77;;
39994;SDS011;25686;51.908;10.418;2024-01-16T09:56:50;13.57;;;6.17;;
39994;SDS011;25686;51.908;10.418;2024-01-16T09:58:54;15.70;;;5.77;;
39994;SDS011;25686;51.908;10.418;2024-01-16T10:00:57;11.60;;;5.90;;
39994;SDS011;25686;51.908;10.418;2024-01-16T10:02:58;12.93;;;5.80;;
39994;SDS011;25686;51.908;10.418;2024-01-16T10:05:00;14.23;;;5.57;;
39994;SDS011;25686;51.908;10.418;2024-01-16T10:07:01;11.00;;;6.03;;
39994;SDS011;25686;51.908;10.418;2024-01-16T10:09:02;19.33;;;5.90;;
39994;SDS011;25686;51.908;10.418;2024-01-16T10:11:04;15.43;;;6.20;;
39994;SDS011;25686;51.908;10.418;2024-01-16T10:13:05;12.33;;;6.13;;
39994;SDS011;25686;51.908;10.418;2024-01-16T10:15:06;15.13;;;6.63;;
39994;SDS011;25686;51.908;10.418;2024-01-16T10:17:07;13.70;;;6.57;;
39994;SDS011;25686;51.908;10.418;2024-01-16T10:19:15;13.27;;;5.53;;
39994;SDS011;25686;51.908;10.418;2024-01-16T10:21:20;11.90;;;6.40;;
39994;SDS011;25686;51.908;10.418;2024-01-16T10:23:29;15.73;;;6.60;;
39994;SDS011;25686;51.908;10.418;2024-01-16T10:25:32;15.87;;;6.50;;
39994;SDS011;25686;51.908;10.418;2024-01-16T10:27:38;15.83;;;6.67;;
39994;SDS011;25686;51.908;10.418;2024-01-16T10:29:40;15.07;;;5.77;;
39994;SDS011;25686;51.908;10.418;2024-01-16T10:31:55;14.63;;;6.50;;
39994;SDS011;25686;51.908;10.418;2024-01-16T10:33:56;12.53;;;5.67;;
39994;SDS011;25686;51.908;10.418;2024-01-16T10:36:17;14.73;;;6.50;;
39994;SDS011;25686;51.908;10.418;2024-01-16T10:38:20;12.77;;;6.17;;
39994;SDS011;25686;51.908;10.418;2024-01-16T10:40:23;16.77;;;6.47;;
39994;SDS011;25686;51.908;10.418;2024-01-16T10:42:25;12.57;;;6.03;;
39994;SDS011;25686;51.908;10.418;2024-01-16T10:44:26;12.77;;;6.00;;
39994;SDS011;25686;51.908;10.418;2024-01-16T10:46:32;12.87;;;5.70;;
39994;SDS011;25686;51.908;10.418;2024-01-16T10:48:33;11.33;;;6.00;;
39994;SDS011;25686;51.908;10.418;2024-01-16T10:50:34;14.97;;;6.10;;
39994;SDS011;25686;51.908;10.418;2024-01-16T10:52:36;10.27;;;5.33;;
39994;SDS011;25686;51.908;10.418;2024-01-16T10:54:41;16.50;;;6.00;;
39994;SDS011;25686;51.908;10.418;2024-01-16T10:56:45;12.10;;;5.73;;
39994;SDS011;25686;51.908;10.418;2024-01-16T10:58:51;13.10;;;6.20;;
39994;SDS011;25686;51.908;10.418;2024-01-16T11:00:57;14.73;;;6.87;;
39994;SDS011;25686;51.908;10.418;2024-01-16T11:05:00;12.37;;;5.57;;
39994;SDS011;25686;51.908;10.418;2024-01-16T11:07:01;12.17;;;6.33;;
39994;SDS011;25686;51.908;10.418;2024-01-16T11:09:04;15.97;;;6.40;;
39994;SDS011;25686;51.908;10.418;2024-01-16T11:11:06;12.87;;;6.60;;
39994;SDS011;25686;51.908;10.418;2024-01-16T11:13:07;10.77;;;6.07;;
39994;SDS011;25686;51.908;10.418;2024-01-16T11:15:10;12.27;;;5.83;;
39994;SDS011;25686;51.908;10.418;2024-01-16T11:17:12;12.47;;;5.93;;
39994;SDS011;25686;51.908;10.418;2024-01-16T11:19:18;10.90;;;5.90;;
39994;SDS011;25686;51.908;10.418;2024-01-16T11:21:19;14.47;;;6.40;;
39994;SDS011;25686;51.908;10.418;2024-01-16T11:23:20;11.60;;;5.87;;
39994;SDS011;25686;51.908;10.418;2024-01-16T11:25:21;13.20;;;5.80;;
39994;SDS011;25686;51.908;10.418;2024-01-16T11:27:31;11.97;;;6.23;;
39994;SDS011;25686;51.908;10.418;2024-01-16T11:31:33;10.47;;;5.97;;
39994;SDS011;25686;51.908;10.418;2024-01-16T11:35:36;15.07;;;6.53;;
39994;SDS011;25686;51.908;10.418;2024-01-16T11:37:38;15.70;;;6.53;;
39994;SDS011;25686;51.908;10.418;2024-01-16T11:39:40;11.03;;;5.37;;
39994;SDS011;25686;51.908;10.418;2024-01-16T11:41:47;12.20;;;6.73;;
39994;SDS011;25686;51.908;10.418;2024-01-16T11:43:49;13.30;;;6.40;;
39994;SDS011;25686;51.908;10.418;2024-01-16T11:45:50;14.27;;;5.53;;
39994;SDS011;25686;51.908;10.418;2024-01-16T11:48:07;12.97;;;6.03;;
39994;SDS011;25686;51.908;10.418;2024-01-16T11:50:10;13.20;;;6.13;;
39994;SDS011;25686;51.908;10.418;2024-01-16T11:52:11;9.83;;;5.83;;
39994;SDS011;25686;51.908;10.418;2024-01-16T11:54:13;14.27;;;5.63;;
39994;SDS011;25686;51.908;10.418;2024-01-16T12:00:54;10.93;;;5.30;;
39994;SDS011;25686;51.908;10.418;2024-01-16T12:02:57;16.13;;;5.60;;
39994;SDS011;25686;51.908;10.418;2024-01-16T12:04:58;12.73;;;4.90;;
39994;SDS011;25686;51.908;10.418;2024-01-16T12:07:03;10.47;;;5.10;;